RYR4PY LPPR-EGSS
Flight info
| Callsign | RYR4PY |
|---|---|
| Flight time | 2h 3m |
| Altitude | 24000 |
| Route | TURON P600 ASDEB/N0449F360 DCT LOTEE DCT OZNOH DCT ARTIV DCT DIKRO UM185 DESNA/N0389F240 M185 TELTU |
| Aircraft | B738/M-SDE3FGIJ1LRWYZ/SB1 |
Departure
| Time | 2026-05-07 10:45 |
|---|---|
| Airport | Francisco de Sá Carneiro Airport (LPPR) |
Arrival
| Time | 2026-05-07 12:48 |
|---|---|
| Airport | London Stansted Airport (EGSS) |
| Time | Latitude | Longitude | Altitude | Speed | Heading |
|---|---|---|---|---|---|
| 2026-05-07 10:10 | 41.23974 | -8.67295 | 234 ft | 0 kts | 108° |
| 2026-05-07 10:33 | 41.23980 | -8.67318 | 240 ft | 4 kts | 108° |
| 2026-05-07 10:33 | 41.23989 | -8.67352 | 238 ft | 4 kts | 108° |
| 2026-05-07 10:34 | 41.23997 | -8.67386 | 240 ft | 4 kts | 108° |
| 2026-05-07 10:34 | 41.24002 | -8.67404 | 238 ft | 8 kts | 108° |
| 2026-05-07 10:34 | 41.23994 | -8.67372 | 240 ft | 4 kts | 108° |
| 2026-05-07 10:34 | 41.23991 | -8.67361 | 240 ft | 4 kts | 109° |
| 2026-05-07 10:35 | 41.23999 | -8.67395 | 240 ft | 4 kts | 98° |
| 2026-05-07 10:35 | 41.23999 | -8.67416 | 240 ft | 4 kts | 15° |
| 2026-05-07 10:35 | 41.23979 | -8.67424 | 237 ft | 2 kts | 14° |
| 2026-05-07 10:35 | 41.23977 | -8.67424 | 240 ft | 3 kts | 14° |
| 2026-05-07 10:36 | 41.23978 | -8.67424 | 240 ft | 0 kts | 14° |
| 2026-05-07 10:37 | 41.23979 | -8.67425 | 237 ft | 1 kts | 1° |
| 2026-05-07 10:37 | 41.23978 | -8.67433 | 235 ft | 1 kts | 268° |
| 2026-05-07 10:37 | 41.23957 | -8.67449 | 235 ft | 5 kts | 209° |
| 2026-05-07 10:37 | 41.23946 | -8.67498 | 234 ft | 4 kts | 297° |
| 2026-05-07 10:38 | 41.23961 | -8.67507 | 235 ft | 0 kts | 343° |
| 2026-05-07 10:39 | 41.23962 | -8.67508 | 235 ft | 1 kts | 343° |
| 2026-05-07 10:39 | 41.23991 | -8.67518 | 234 ft | 7 kts | 348° |
| 2026-05-07 10:40 | 41.24044 | -8.67532 | 234 ft | 10 kts | 348° |
| 2026-05-07 10:40 | 41.24126 | -8.67553 | 236 ft | 14 kts | 349° |
| 2026-05-07 10:40 | 41.24226 | -8.67586 | 238 ft | 15 kts | 331° |
| 2026-05-07 10:40 | 41.24296 | -8.67689 | 236 ft | 15 kts | 317° |
| 2026-05-07 10:41 | 41.24400 | -8.67731 | 234 ft | 17 kts | 349° |
| 2026-05-07 10:41 | 41.24516 | -8.67761 | 234 ft | 17 kts | 348° |
| 2026-05-07 10:41 | 41.24629 | -8.67790 | 234 ft | 17 kts | 349° |
| 2026-05-07 10:41 | 41.24756 | -8.67826 | 234 ft | 20 kts | 344° |
| 2026-05-07 10:42 | 41.24889 | -8.67910 | 234 ft | 22 kts | 340° |
| 2026-05-07 10:42 | 41.25034 | -8.67951 | 234 ft | 21 kts | 349° |
| 2026-05-07 10:42 | 41.25179 | -8.67989 | 234 ft | 21 kts | 349° |
| 2026-05-07 10:42 | 41.25317 | -8.68025 | 234 ft | 20 kts | 349° |
| 2026-05-07 10:43 | 41.25452 | -8.68060 | 234 ft | 19 kts | 348° |
| 2026-05-07 10:43 | 41.25582 | -8.68094 | 234 ft | 19 kts | 349° |
| 2026-05-07 10:43 | 41.25669 | -8.68150 | 235 ft | 13 kts | 295° |
| 2026-05-07 10:43 | 41.25665 | -8.68263 | 235 ft | 12 kts | 259° |
| 2026-05-07 10:44 | 41.25649 | -8.68334 | 234 ft | 6 kts | 231° |
| 2026-05-07 10:44 | 41.25617 | -8.68335 | 234 ft | 6 kts | 169° |
| 2026-05-07 10:44 | 41.25493 | -8.68302 | 234 ft | 46 kts | 169° |
| 2026-05-07 10:44 | 41.24926 | -8.68155 | 235 ft | 118 kts | 169° |
| 2026-05-07 10:45 | 41.23921 | -8.67884 | 269 ft | 173 kts | 168° |
| 2026-05-07 10:45 | 41.22752 | -8.67534 | 1085 ft | 164 kts | 169° |
| 2026-05-07 10:45 | 41.21662 | -8.67271 | 1947 ft | 160 kts | 170° |
| 2026-05-07 10:45 | 41.20544 | -8.67009 | 2444 ft | 169 kts | 169° |
| 2026-05-07 10:46 | 41.19360 | -8.66699 | 2993 ft | 175 kts | 168° |
| 2026-05-07 10:46 | 41.18106 | -8.66363 | 3319 ft | 196 kts | 168° |
| 2026-05-07 10:46 | 41.16749 | -8.65997 | 3829 ft | 202 kts | 168° |
| 2026-05-07 10:46 | 41.15356 | -8.65622 | 4393 ft | 205 kts | 168° |
| 2026-05-07 10:47 | 41.13929 | -8.65236 | 4764 ft | 219 kts | 167° |
| 2026-05-07 10:47 | 41.12399 | -8.64822 | 5141 ft | 227 kts | 168° |
| 2026-05-07 10:47 | 41.10842 | -8.64536 | 5618 ft | 232 kts | 184° |
| 2026-05-07 10:47 | 41.09277 | -8.65044 | 6185 ft | 232 kts | 194° |
| 2026-05-07 10:48 | 41.07640 | -8.65046 | 6504 ft | 244 kts | 162° |
| 2026-05-07 10:48 | 41.06171 | -8.63876 | 6894 ft | 257 kts | 132° |
| 2026-05-07 10:48 | 41.05305 | -8.61745 | 7180 ft | 272 kts | 101° |
| 2026-05-07 10:48 | 41.05358 | -8.59231 | 7769 ft | 277 kts | 72° |
| 2026-05-07 10:49 | 41.06289 | -8.57101 | 8460 ft | 278 kts | 44° |
| 2026-05-07 10:49 | 41.07944 | -8.55830 | 9196 ft | 280 kts | 13° |
| 2026-05-07 10:49 | 41.09886 | -8.55585 | 9952 ft | 282 kts | 0° |
| 2026-05-07 10:49 | 41.11890 | -8.55608 | 10356 ft | 298 kts | 358° |
| 2026-05-07 10:50 | 41.14044 | -8.55686 | 10532 ft | 321 kts | 358° |
| 2026-05-07 10:50 | 41.16334 | -8.55766 | 10906 ft | 335 kts | 358° |
| 2026-05-07 10:50 | 41.18660 | -8.55830 | 11530 ft | 340 kts | 358° |
| 2026-05-07 10:50 | 41.21034 | -8.55878 | 12276 ft | 343 kts | 358° |
| 2026-05-07 10:51 | 41.23443 | -8.55914 | 12968 ft | 348 kts | 359° |
| 2026-05-07 10:51 | 41.25878 | -8.55940 | 13692 ft | 353 kts | 359° |
| 2026-05-07 10:51 | 41.28348 | -8.55960 | 14360 ft | 357 kts | 359° |
| 2026-05-07 10:51 | 41.30843 | -8.55977 | 15036 ft | 361 kts | 359° |
| 2026-05-07 10:52 | 41.33365 | -8.55991 | 15734 ft | 364 kts | 359° |
| 2026-05-07 10:52 | 41.35918 | -8.56004 | 16426 ft | 368 kts | 359° |
| 2026-05-07 10:52 | 41.38488 | -8.56017 | 17112 ft | 372 kts | 359° |
| 2026-05-07 10:52 | 41.41097 | -8.56029 | 17787 ft | 376 kts | 359° |
| 2026-05-07 10:53 | 41.43733 | -8.56042 | 18426 ft | 380 kts | 359° |
| 2026-05-07 10:53 | 41.46386 | -8.56054 | 19013 ft | 383 kts | 359° |
| 2026-05-07 10:53 | 41.49068 | -8.56067 | 19620 ft | 386 kts | 358° |
| 2026-05-07 10:53 | 41.51765 | -8.56079 | 20213 ft | 389 kts | 358° |
| 2026-05-07 10:54 | 41.54481 | -8.56092 | 20800 ft | 392 kts | 358° |
| 2026-05-07 10:54 | 41.57226 | -8.56105 | 21365 ft | 396 kts | 358° |
| 2026-05-07 10:54 | 41.59986 | -8.56118 | 21928 ft | 399 kts | 358° |
| 2026-05-07 10:54 | 41.62783 | -8.56131 | 22466 ft | 403 kts | 358° |
| 2026-05-07 10:55 | 41.65593 | -8.56146 | 23015 ft | 406 kts | 358° |
| 2026-05-07 10:55 | 41.68437 | -8.56160 | 23541 ft | 410 kts | 358° |
| 2026-05-07 10:55 | 41.71260 | -8.56174 | 23885 ft | 412 kts | 358° |
| 2026-05-07 10:55 | 41.74143 | -8.56187 | 23926 ft | 416 kts | 358° |
| 2026-05-07 10:56 | 41.77050 | -8.56200 | 24293 ft | 419 kts | 358° |
| 2026-05-07 10:56 | 41.79959 | -8.56213 | 24858 ft | 418 kts | 358° |
| 2026-05-07 10:56 | 41.82869 | -8.56227 | 25371 ft | 419 kts | 358° |
| 2026-05-07 10:56 | 41.85793 | -8.56241 | 25788 ft | 422 kts | 358° |
| 2026-05-07 10:57 | 41.88743 | -8.56255 | 26167 ft | 425 kts | 358° |
| 2026-05-07 10:57 | 41.91713 | -8.56270 | 26573 ft | 428 kts | 358° |
| 2026-05-07 10:57 | 41.94703 | -8.56284 | 26992 ft | 430 kts | 358° |
| 2026-05-07 10:57 | 41.97699 | -8.56299 | 27381 ft | 432 kts | 358° |
| 2026-05-07 10:58 | 42.00717 | -8.56313 | 27755 ft | 435 kts | 358° |
| 2026-05-07 10:58 | 42.03756 | -8.56328 | 28131 ft | 437 kts | 358° |
| 2026-05-07 10:58 | 42.06811 | -8.56327 | 28498 ft | 440 kts | 359° |
| 2026-05-07 10:58 | 42.09858 | -8.56034 | 28839 ft | 444 kts | 4° |
| 2026-05-07 10:59 | 42.12937 | -8.55544 | 29176 ft | 447 kts | 5° |
| 2026-05-07 10:59 | 42.16025 | -8.54996 | 29516 ft | 449 kts | 6° |
| 2026-05-07 10:59 | 42.19132 | -8.54443 | 29853 ft | 451 kts | 5° |
| 2026-05-07 10:59 | 42.22254 | -8.53907 | 30141 ft | 453 kts | 5° |
| 2026-05-07 11:00 | 42.25390 | -8.53388 | 30386 ft | 455 kts | 5° |
| 2026-05-07 11:00 | 42.28502 | -8.52885 | 30623 ft | 457 kts | 5° |
| 2026-05-07 11:00 | 42.31707 | -8.52375 | 30928 ft | 458 kts | 5° |
| 2026-05-07 11:00 | 42.34823 | -8.51879 | 31301 ft | 456 kts | 5° |
| 2026-05-07 11:01 | 42.37970 | -8.51377 | 31689 ft | 455 kts | 5° |
| 2026-05-07 11:01 | 42.41116 | -8.50875 | 32020 ft | 455 kts | 5° |
| 2026-05-07 11:01 | 42.44255 | -8.50372 | 32349 ft | 455 kts | 5° |
| 2026-05-07 11:01 | 42.47397 | -8.49843 | 32711 ft | 455 kts | 8° |
| 2026-05-07 11:02 | 42.50464 | -8.48738 | 33012 ft | 457 kts | 19° |
| 2026-05-07 11:02 | 42.53340 | -8.46878 | 33363 ft | 459 kts | 30° |
| 2026-05-07 11:02 | 42.55931 | -8.44346 | 33685 ft | 460 kts | 39° |
| 2026-05-07 11:02 | 42.58351 | -8.41499 | 33993 ft | 460 kts | 40° |
| 2026-05-07 11:03 | 42.60741 | -8.38605 | 34232 ft | 461 kts | 40° |
| 2026-05-07 11:03 | 42.63132 | -8.35690 | 34465 ft | 461 kts | 40° |
| 2026-05-07 11:03 | 42.65521 | -8.32790 | 34733 ft | 461 kts | 40° |
| 2026-05-07 11:03 | 42.67918 | -8.29899 | 34987 ft | 461 kts | 40° |
| 2026-05-07 11:04 | 42.70325 | -8.27013 | 35215 ft | 461 kts | 39° |
| 2026-05-07 11:04 | 42.72733 | -8.24137 | 35452 ft | 461 kts | 39° |
| 2026-05-07 11:04 | 42.75150 | -8.21256 | 35691 ft | 461 kts | 39° |
| 2026-05-07 11:04 | 42.77560 | -8.18384 | 35923 ft | 461 kts | 39° |
| 2026-05-07 11:05 | 42.79972 | -8.15508 | 36140 ft | 461 kts | 39° |
| 2026-05-07 11:05 | 42.82384 | -8.12629 | 36364 ft | 462 kts | 39° |
| 2026-05-07 11:05 | 42.84798 | -8.09743 | 36570 ft | 462 kts | 39° |
| 2026-05-07 11:05 | 42.87182 | -8.06889 | 36795 ft | 462 kts | 39° |
| 2026-05-07 11:06 | 42.89597 | -8.03994 | 37008 ft | 462 kts | 39° |
| 2026-05-07 11:06 | 42.92007 | -8.01103 | 37206 ft | 462 kts | 39° |
| 2026-05-07 11:06 | 42.94426 | -7.98197 | 37388 ft | 463 kts | 39° |
| 2026-05-07 11:06 | 42.96843 | -7.95290 | 37599 ft | 463 kts | 39° |
| 2026-05-07 11:07 | 42.99260 | -7.92380 | 37808 ft | 463 kts | 39° |
| 2026-05-07 11:07 | 43.01679 | -7.89464 | 37886 ft | 465 kts | 39° |
| 2026-05-07 11:07 | 43.06536 | -7.83601 | 37893 ft | 465 kts | 39° |
| 2026-05-07 11:08 | 43.11369 | -7.77752 | 37887 ft | 462 kts | 39° |
| 2026-05-07 11:08 | 43.16159 | -7.71943 | 37902 ft | 459 kts | 39° |
| 2026-05-07 11:09 | 43.20927 | -7.66149 | 37890 ft | 457 kts | 39° |
| 2026-05-07 11:09 | 43.25668 | -7.60375 | 37905 ft | 455 kts | 39° |
| 2026-05-07 11:10 | 43.30405 | -7.54595 | 37901 ft | 456 kts | 39° |
| 2026-05-07 11:10 | 43.35149 | -7.48793 | 37907 ft | 458 kts | 40° |
| 2026-05-07 11:11 | 43.39885 | -7.42988 | 37914 ft | 460 kts | 40° |
| 2026-05-07 11:11 | 43.44669 | -7.37111 | 37908 ft | 462 kts | 40° |
| 2026-05-07 11:12 | 43.49474 | -7.31196 | 37925 ft | 464 kts | 40° |
| 2026-05-07 11:12 | 43.54293 | -7.25249 | 37922 ft | 466 kts | 40° |
| 2026-05-07 11:13 | 43.59126 | -7.19271 | 37911 ft | 467 kts | 40° |
| 2026-05-07 11:13 | 43.63958 | -7.13281 | 37921 ft | 467 kts | 40° |
| 2026-05-07 11:14 | 43.67970 | -7.08297 | 37919 ft | 466 kts | 40° |
| 2026-05-07 11:14 | 43.72787 | -7.02302 | 37925 ft | 465 kts | 40° |
| 2026-05-07 11:15 | 43.77589 | -6.96311 | 37924 ft | 464 kts | 40° |
| 2026-05-07 11:15 | 43.82375 | -6.90328 | 37929 ft | 463 kts | 40° |
| 2026-05-07 11:16 | 43.87146 | -6.84348 | 37932 ft | 462 kts | 40° |
| 2026-05-07 11:16 | 43.91906 | -6.78370 | 37931 ft | 461 kts | 40° |
| 2026-05-07 11:17 | 43.96655 | -6.72392 | 37936 ft | 460 kts | 40° |
| 2026-05-07 11:17 | 44.01398 | -6.66408 | 37936 ft | 460 kts | 40° |
| 2026-05-07 11:18 | 44.06124 | -6.60432 | 37937 ft | 460 kts | 40° |
| 2026-05-07 11:18 | 44.10860 | -6.54431 | 37938 ft | 460 kts | 40° |
| 2026-05-07 11:19 | 44.15585 | -6.48428 | 37938 ft | 460 kts | 41° |
| 2026-05-07 11:19 | 44.20289 | -6.42440 | 37945 ft | 461 kts | 41° |
| 2026-05-07 11:20 | 44.25028 | -6.36394 | 37945 ft | 461 kts | 41° |
| 2026-05-07 11:20 | 44.29763 | -6.30338 | 37952 ft | 462 kts | 41° |
| 2026-05-07 11:21 | 44.34501 | -6.24264 | 37951 ft | 463 kts | 41° |
| 2026-05-07 11:21 | 44.39245 | -6.18168 | 37952 ft | 463 kts | 41° |
| 2026-05-07 11:22 | 44.43986 | -6.12063 | 37955 ft | 463 kts | 41° |
| 2026-05-07 11:22 | 44.48697 | -6.05982 | 37957 ft | 464 kts | 41° |
| 2026-05-07 11:23 | 44.53442 | -5.99842 | 37960 ft | 464 kts | 41° |
| 2026-05-07 11:23 | 44.58178 | -5.93700 | 37957 ft | 464 kts | 41° |
| 2026-05-07 11:24 | 44.62917 | -5.87541 | 37962 ft | 464 kts | 41° |
| 2026-05-07 11:24 | 44.67898 | -5.81858 | 37958 ft | 461 kts | 29° |
| 2026-05-07 11:25 | 44.73460 | -5.77388 | 37969 ft | 460 kts | 27° |
| 2026-05-07 11:25 | 44.79044 | -5.73007 | 37969 ft | 460 kts | 28° |
| 2026-05-07 11:26 | 44.84622 | -5.68563 | 37974 ft | 460 kts | 28° |
| 2026-05-07 11:26 | 44.90198 | -5.64062 | 37977 ft | 464 kts | 28° |
| 2026-05-07 11:27 | 44.95799 | -5.59513 | 37987 ft | 470 kts | 28° |
| 2026-05-07 11:27 | 45.01489 | -5.54879 | 37983 ft | 474 kts | 29° |
| 2026-05-07 11:28 | 45.07215 | -5.50207 | 37986 ft | 476 kts | 29° |
| 2026-05-07 11:28 | 45.12954 | -5.45513 | 37973 ft | 474 kts | 29° |
| 2026-05-07 11:29 | 45.18611 | -5.40876 | 37975 ft | 465 kts | 29° |
| 2026-05-07 11:29 | 45.24206 | -5.36281 | 37989 ft | 464 kts | 29° |
| 2026-05-07 11:30 | 45.29785 | -5.31688 | 37991 ft | 463 kts | 29° |
| 2026-05-07 11:30 | 45.35324 | -5.27118 | 37992 ft | 463 kts | 29° |
| 2026-05-07 11:31 | 45.40903 | -5.22504 | 37994 ft | 464 kts | 29° |
| 2026-05-07 11:31 | 45.46496 | -5.17868 | 38000 ft | 466 kts | 29° |
| 2026-05-07 11:32 | 45.54914 | -5.10869 | 37999 ft | 468 kts | 30° |
| 2026-05-07 11:33 | 45.60558 | -5.06163 | 38002 ft | 470 kts | 30° |
| 2026-05-07 11:33 | 45.66208 | -5.01441 | 38005 ft | 471 kts | 30° |
| 2026-05-07 11:34 | 45.71870 | -4.96697 | 38002 ft | 472 kts | 30° |
| 2026-05-07 11:34 | 45.77539 | -4.91937 | 38005 ft | 472 kts | 30° |
| 2026-05-07 11:35 | 45.83209 | -4.87164 | 38004 ft | 473 kts | 30° |
| 2026-05-07 11:35 | 45.88876 | -4.82383 | 38009 ft | 472 kts | 30° |
| 2026-05-07 11:36 | 45.94542 | -4.77589 | 38008 ft | 472 kts | 30° |
| 2026-05-07 11:36 | 46.00148 | -4.72837 | 38008 ft | 471 kts | 30° |
| 2026-05-07 11:37 | 46.05795 | -4.68038 | 38013 ft | 470 kts | 30° |
| 2026-05-07 11:37 | 46.11423 | -4.63243 | 38012 ft | 470 kts | 30° |
| 2026-05-07 11:38 | 46.17051 | -4.58437 | 38015 ft | 469 kts | 30° |
| 2026-05-07 11:38 | 46.22659 | -4.53637 | 38013 ft | 469 kts | 30° |
| 2026-05-07 11:39 | 46.28266 | -4.48826 | 38015 ft | 468 kts | 30° |
| 2026-05-07 11:39 | 46.33834 | -4.44037 | 38019 ft | 468 kts | 30° |
| 2026-05-07 11:40 | 46.39425 | -4.39216 | 38020 ft | 468 kts | 30° |
| 2026-05-07 11:40 | 46.45025 | -4.34376 | 38023 ft | 468 kts | 30° |
| 2026-05-07 11:41 | 46.50629 | -4.29521 | 38022 ft | 469 kts | 30° |
| 2026-05-07 11:41 | 46.56230 | -4.24657 | 38024 ft | 469 kts | 30° |
| 2026-05-07 11:42 | 46.61836 | -4.19777 | 38022 ft | 469 kts | 30° |
| 2026-05-07 11:42 | 46.67439 | -4.14887 | 38023 ft | 470 kts | 30° |
| 2026-05-07 11:43 | 46.73006 | -4.10016 | 38022 ft | 470 kts | 30° |
| 2026-05-07 11:43 | 46.78613 | -4.05100 | 38023 ft | 471 kts | 31° |
| 2026-05-07 11:44 | 46.84236 | -4.00156 | 38026 ft | 471 kts | 31° |
| 2026-05-07 11:44 | 46.89847 | -3.95211 | 38023 ft | 471 kts | 31° |
| 2026-05-07 11:45 | 46.95460 | -3.90252 | 38019 ft | 471 kts | 31° |
| 2026-05-07 11:45 | 47.01074 | -3.85280 | 38019 ft | 471 kts | 31° |
| 2026-05-07 11:46 | 47.06648 | -3.80331 | 38021 ft | 471 kts | 31° |
| 2026-05-07 11:46 | 47.12248 | -3.75346 | 38022 ft | 471 kts | 31° |
| 2026-05-07 11:47 | 47.17849 | -3.70348 | 38025 ft | 470 kts | 31° |
| 2026-05-07 11:47 | 47.23441 | -3.65346 | 38021 ft | 470 kts | 31° |
| 2026-05-07 11:48 | 47.29021 | -3.60342 | 38020 ft | 470 kts | 31° |
| 2026-05-07 11:48 | 47.34596 | -3.55329 | 38021 ft | 469 kts | 31° |
| 2026-05-07 11:49 | 47.40166 | -3.50309 | 38020 ft | 469 kts | 31° |
| 2026-05-07 11:49 | 47.45731 | -3.45281 | 38020 ft | 468 kts | 31° |
| 2026-05-07 11:50 | 47.51286 | -3.40249 | 38020 ft | 468 kts | 31° |
| 2026-05-07 11:50 | 47.56838 | -3.35208 | 38023 ft | 468 kts | 31° |
| 2026-05-07 11:51 | 47.62356 | -3.30184 | 38017 ft | 468 kts | 31° |
| 2026-05-07 11:51 | 47.67898 | -3.25126 | 38022 ft | 468 kts | 31° |
| 2026-05-07 11:52 | 47.73442 | -3.20053 | 38019 ft | 468 kts | 31° |
| 2026-05-07 11:52 | 47.78983 | -3.14970 | 38017 ft | 468 kts | 31° |
| 2026-05-07 11:53 | 47.84502 | -3.09895 | 38023 ft | 469 kts | 31° |
| 2026-05-07 11:53 | 47.90060 | -3.04771 | 38006 ft | 469 kts | 31° |
| 2026-05-07 11:54 | 47.95614 | -2.99636 | 38008 ft | 469 kts | 31° |
| 2026-05-07 11:54 | 48.01165 | -2.94493 | 38010 ft | 469 kts | 31° |
| 2026-05-07 11:55 | 48.06708 | -2.89342 | 38014 ft | 469 kts | 31° |
| 2026-05-07 11:55 | 48.12256 | -2.84174 | 38016 ft | 470 kts | 31° |
| 2026-05-07 11:56 | 48.17779 | -2.79016 | 38010 ft | 470 kts | 31° |
| 2026-05-07 11:56 | 48.23308 | -2.73839 | 38021 ft | 470 kts | 31° |
| 2026-05-07 11:57 | 48.28849 | -2.68637 | 38022 ft | 469 kts | 31° |
| 2026-05-07 11:57 | 48.34385 | -2.63426 | 38021 ft | 469 kts | 31° |
| 2026-05-07 11:58 | 48.39876 | -2.58244 | 38027 ft | 468 kts | 31° |
| 2026-05-07 11:58 | 48.45387 | -2.52917 | 38018 ft | 468 kts | 36° |
| 2026-05-07 11:59 | 48.50065 | -2.46231 | 38037 ft | 467 kts | 47° |
| 2026-05-07 11:59 | 48.54466 | -2.39022 | 38040 ft | 467 kts | 47° |
| 2026-05-07 12:00 | 48.58888 | -2.31818 | 38046 ft | 467 kts | 47° |
| 2026-05-07 12:00 | 48.63331 | -2.24660 | 38044 ft | 467 kts | 46° |
| 2026-05-07 12:01 | 48.67787 | -2.17492 | 38044 ft | 467 kts | 46° |
| 2026-05-07 12:01 | 48.72224 | -2.10333 | 38050 ft | 467 kts | 47° |
| 2026-05-07 12:02 | 48.76642 | -2.03179 | 38052 ft | 467 kts | 47° |
| 2026-05-07 12:02 | 48.80356 | -1.97148 | 38047 ft | 467 kts | 47° |
| 2026-05-07 12:03 | 48.84792 | -1.89930 | 38051 ft | 467 kts | 47° |
| 2026-05-07 12:03 | 48.89643 | -1.83497 | 38068 ft | 466 kts | 34° |
| 2026-05-07 12:04 | 48.95019 | -1.77994 | 38052 ft | 466 kts | 33° |
| 2026-05-07 12:04 | 49.00420 | -1.72500 | 38048 ft | 466 kts | 33° |
| 2026-05-07 12:05 | 49.05790 | -1.66937 | 38053 ft | 466 kts | 34° |
| 2026-05-07 12:05 | 49.11141 | -1.61334 | 38045 ft | 466 kts | 34° |
| 2026-05-07 12:06 | 49.16482 | -1.55719 | 38049 ft | 466 kts | 34° |
| 2026-05-07 12:06 | 49.21827 | -1.50088 | 38052 ft | 466 kts | 34° |
| 2026-05-07 12:07 | 49.27172 | -1.44444 | 38044 ft | 466 kts | 34° |
| 2026-05-07 12:07 | 49.32473 | -1.38832 | 38054 ft | 466 kts | 34° |
| 2026-05-07 12:08 | 49.37809 | -1.33167 | 38046 ft | 466 kts | 34° |
| 2026-05-07 12:08 | 49.43141 | -1.27492 | 38035 ft | 466 kts | 34° |
| 2026-05-07 12:09 | 49.48463 | -1.21811 | 38049 ft | 465 kts | 34° |
| 2026-05-07 12:09 | 49.53782 | -1.16118 | 38044 ft | 465 kts | 34° |
| 2026-05-07 12:10 | 49.59056 | -1.10455 | 38047 ft | 465 kts | 35° |
| 2026-05-07 12:10 | 49.64196 | -1.04416 | 38047 ft | 464 kts | 38° |
| 2026-05-07 12:10 | 49.66788 | -1.01268 | 37579 ft | 471 kts | 37° |
| 2026-05-07 12:11 | 49.69331 | -0.98217 | 37074 ft | 468 kts | 37° |
| 2026-05-07 12:11 | 49.71911 | -0.95163 | 36481 ft | 466 kts | 34° |
| 2026-05-07 12:11 | 49.74685 | -0.92601 | 35881 ft | 464 kts | 24° |
| 2026-05-07 12:11 | 49.77685 | -0.90792 | 35280 ft | 462 kts | 15° |
| 2026-05-07 12:12 | 49.80816 | -0.89732 | 34624 ft | 460 kts | 4° |
| 2026-05-07 12:12 | 49.83992 | -0.89296 | 34206 ft | 455 kts | 2° |
| 2026-05-07 12:12 | 49.87142 | -0.88937 | 33651 ft | 452 kts | 2° |
| 2026-05-07 12:12 | 49.90262 | -0.88568 | 33171 ft | 447 kts | 2° |
| 2026-05-07 12:13 | 49.93354 | -0.88167 | 32718 ft | 443 kts | 2° |
| 2026-05-07 12:13 | 49.96408 | -0.87741 | 32275 ft | 438 kts | 3° |
| 2026-05-07 12:13 | 49.99432 | -0.87310 | 31827 ft | 434 kts | 3° |
| 2026-05-07 12:13 | 50.02425 | -0.86881 | 31386 ft | 430 kts | 3° |
| 2026-05-07 12:14 | 50.05390 | -0.86457 | 30955 ft | 426 kts | 3° |
| 2026-05-07 12:14 | 50.08298 | -0.86042 | 30536 ft | 423 kts | 2° |
| 2026-05-07 12:14 | 50.11218 | -0.85625 | 30105 ft | 419 kts | 2° |
| 2026-05-07 12:14 | 50.14108 | -0.85212 | 29619 ft | 416 kts | 2° |
| 2026-05-07 12:15 | 50.16969 | -0.84803 | 29193 ft | 410 kts | 2° |
| 2026-05-07 12:15 | 50.19801 | -0.84397 | 28747 ft | 406 kts | 3° |
| 2026-05-07 12:15 | 50.22598 | -0.83996 | 28316 ft | 402 kts | 3° |
| 2026-05-07 12:15 | 50.25376 | -0.83598 | 27895 ft | 398 kts | 3° |
| 2026-05-07 12:16 | 50.28127 | -0.83203 | 27459 ft | 395 kts | 3° |
| 2026-05-07 12:16 | 50.30850 | -0.82812 | 27036 ft | 391 kts | 3° |
| 2026-05-07 12:16 | 50.33551 | -0.82423 | 26608 ft | 388 kts | 3° |
| 2026-05-07 12:16 | 50.36236 | -0.82035 | 26194 ft | 386 kts | 3° |
| 2026-05-07 12:17 | 50.38897 | -0.81650 | 25784 ft | 383 kts | 3° |
| 2026-05-07 12:17 | 50.41548 | -0.81267 | 25374 ft | 381 kts | 3° |
| 2026-05-07 12:17 | 50.44174 | -0.80886 | 24970 ft | 379 kts | 3° |
| 2026-05-07 12:17 | 50.46791 | -0.80507 | 24564 ft | 377 kts | 3° |
| 2026-05-07 12:18 | 50.49362 | -0.80134 | 24169 ft | 375 kts | 3° |
| 2026-05-07 12:18 | 50.51957 | -0.79757 | 23767 ft | 373 kts | 3° |
| 2026-05-07 12:18 | 50.54539 | -0.79381 | 23313 ft | 372 kts | 3° |
| 2026-05-07 12:18 | 50.57110 | -0.79007 | 22861 ft | 370 kts | 3° |
| 2026-05-07 12:19 | 50.59666 | -0.78634 | 22444 ft | 367 kts | 3° |
| 2026-05-07 12:19 | 50.62202 | -0.78264 | 22041 ft | 364 kts | 3° |
| 2026-05-07 12:19 | 50.64719 | -0.77896 | 21632 ft | 362 kts | 4° |
| 2026-05-07 12:19 | 50.67216 | -0.77531 | 21244 ft | 359 kts | 4° |
| 2026-05-07 12:20 | 50.69695 | -0.77168 | 20849 ft | 357 kts | 4° |
| 2026-05-07 12:20 | 50.72161 | -0.76806 | 20462 ft | 355 kts | 4° |
| 2026-05-07 12:20 | 50.74616 | -0.76446 | 20078 ft | 353 kts | 4° |
| 2026-05-07 12:20 | 50.77056 | -0.76088 | 19694 ft | 351 kts | 4° |
| 2026-05-07 12:21 | 50.79458 | -0.75735 | 19321 ft | 350 kts | 4° |
| 2026-05-07 12:21 | 50.81843 | -0.75132 | 18987 ft | 348 kts | 17° |
| 2026-05-07 12:21 | 50.84092 | -0.73777 | 18820 ft | 344 kts | 21° |
| 2026-05-07 12:21 | 50.86335 | -0.72304 | 18634 ft | 353 kts | 22° |
| 2026-05-07 12:22 | 50.88619 | -0.70782 | 18424 ft | 359 kts | 22° |
| 2026-05-07 12:22 | 50.90914 | -0.69258 | 18193 ft | 357 kts | 22° |
| 2026-05-07 12:22 | 50.93199 | -0.67753 | 17949 ft | 354 kts | 22° |
| 2026-05-07 12:22 | 50.95466 | -0.66269 | 17740 ft | 350 kts | 21° |
| 2026-05-07 12:23 | 50.97715 | -0.64805 | 17537 ft | 347 kts | 21° |
| 2026-05-07 12:23 | 50.99942 | -0.63358 | 17334 ft | 345 kts | 21° |
| 2026-05-07 12:23 | 51.02166 | -0.61914 | 17138 ft | 344 kts | 21° |
| 2026-05-07 12:23 | 51.04382 | -0.60476 | 16933 ft | 344 kts | 22° |
| 2026-05-07 12:24 | 51.06592 | -0.59040 | 16741 ft | 344 kts | 22° |
| 2026-05-07 12:24 | 51.08807 | -0.57601 | 16541 ft | 344 kts | 22° |
| 2026-05-07 12:24 | 51.10993 | -0.56179 | 16353 ft | 344 kts | 22° |
| 2026-05-07 12:24 | 51.13212 | -0.54733 | 16152 ft | 344 kts | 22° |
| 2026-05-07 12:25 | 51.15428 | -0.53289 | 15958 ft | 344 kts | 22° |
| 2026-05-07 12:25 | 51.17643 | -0.51843 | 15756 ft | 344 kts | 22° |
| 2026-05-07 12:25 | 51.19857 | -0.50396 | 15563 ft | 343 kts | 22° |
| 2026-05-07 12:25 | 51.22063 | -0.48953 | 15371 ft | 342 kts | 22° |
| 2026-05-07 12:26 | 51.24266 | -0.47511 | 15169 ft | 340 kts | 22° |
| 2026-05-07 12:26 | 51.26448 | -0.46082 | 14976 ft | 339 kts | 22° |
| 2026-05-07 12:26 | 51.28624 | -0.44654 | 14801 ft | 337 kts | 22° |
| 2026-05-07 12:26 | 51.30786 | -0.43234 | 14613 ft | 335 kts | 22° |
| 2026-05-07 12:27 | 51.32937 | -0.41820 | 14426 ft | 334 kts | 22° |
| 2026-05-07 12:27 | 51.35075 | -0.40413 | 14219 ft | 332 kts | 22° |
| 2026-05-07 12:27 | 51.37186 | -0.39022 | 14051 ft | 331 kts | 22° |
| 2026-05-07 12:27 | 51.39338 | -0.37603 | 13853 ft | 329 kts | 22° |
| 2026-05-07 12:28 | 51.41373 | -0.36260 | 13659 ft | 328 kts | 22° |
| 2026-05-07 12:28 | 51.43483 | -0.34864 | 13451 ft | 327 kts | 23° |
| 2026-05-07 12:28 | 51.45549 | -0.33376 | 13267 ft | 325 kts | 25° |
| 2026-05-07 12:28 | 51.47590 | -0.31813 | 13075 ft | 324 kts | 26° |
| 2026-05-07 12:29 | 51.49624 | -0.30234 | 12894 ft | 323 kts | 26° |
| 2026-05-07 12:29 | 51.51645 | -0.28665 | 12704 ft | 323 kts | 26° |
| 2026-05-07 12:29 | 51.53670 | -0.27099 | 12521 ft | 322 kts | 26° |
| 2026-05-07 12:29 | 51.55681 | -0.25549 | 12335 ft | 321 kts | 26° |
| 2026-05-07 12:30 | 51.57695 | -0.23998 | 12155 ft | 320 kts | 26° |
| 2026-05-07 12:30 | 51.59702 | -0.22455 | 11968 ft | 320 kts | 26° |
| 2026-05-07 12:30 | 51.61715 | -0.20906 | 11793 ft | 320 kts | 26° |
| 2026-05-07 12:30 | 51.63726 | -0.19359 | 11611 ft | 319 kts | 26° |
| 2026-05-07 12:31 | 51.65725 | -0.17818 | 11439 ft | 319 kts | 26° |
| 2026-05-07 12:31 | 51.67733 | -0.16270 | 11230 ft | 319 kts | 26° |
| 2026-05-07 12:31 | 51.69726 | -0.14733 | 11060 ft | 318 kts | 26° |
| 2026-05-07 12:31 | 51.71544 | -0.13329 | 10900 ft | 317 kts | 26° |
| 2026-05-07 12:32 | 51.73554 | -0.11775 | 10709 ft | 311 kts | 26° |
| 2026-05-07 12:32 | 51.75480 | -0.10294 | 10519 ft | 303 kts | 25° |
| 2026-05-07 12:32 | 51.77390 | -0.08925 | 10352 ft | 297 kts | 24° |
| 2026-05-07 12:32 | 51.79275 | -0.07619 | 10190 ft | 292 kts | 23° |
| 2026-05-07 12:33 | 51.82907 | -0.05106 | 10078 ft | 281 kts | 24° |
| 2026-05-07 12:33 | 51.84691 | -0.03863 | 9867 ft | 282 kts | 24° |
| 2026-05-07 12:33 | 51.86501 | -0.02598 | 9584 ft | 282 kts | 24° |
| 2026-05-07 12:34 | 51.88300 | -0.01336 | 9366 ft | 280 kts | 24° |
| 2026-05-07 12:34 | 51.90076 | -0.00088 | 9202 ft | 277 kts | 24° |
| 2026-05-07 12:34 | 51.91842 | 0.01154 | 9039 ft | 276 kts | 24° |
| 2026-05-07 12:34 | 51.93605 | 0.02396 | 8881 ft | 275 kts | 24° |
| 2026-05-07 12:35 | 51.95341 | 0.03619 | 8711 ft | 269 kts | 24° |
| 2026-05-07 12:35 | 51.97035 | 0.04815 | 8553 ft | 262 kts | 24° |
| 2026-05-07 12:35 | 51.98696 | 0.05962 | 8402 ft | 256 kts | 20° |
| 2026-05-07 12:35 | 52.00433 | 0.06366 | 8266 ft | 251 kts | 1° |
| 2026-05-07 12:36 | 52.02165 | 0.06411 | 8128 ft | 247 kts | 1° |
| 2026-05-07 12:36 | 52.03877 | 0.06485 | 7985 ft | 247 kts | 2° |
| 2026-05-07 12:36 | 52.05607 | 0.06573 | 7867 ft | 249 kts | 2° |
| 2026-05-07 12:36 | 52.07324 | 0.06666 | 7725 ft | 251 kts | 2° |
| 2026-05-07 12:37 | 52.09098 | 0.06765 | 7575 ft | 252 kts | 2° |
| 2026-05-07 12:37 | 52.10790 | 0.06314 | 7399 ft | 253 kts | 332° |
| 2026-05-07 12:37 | 52.12070 | 0.04393 | 7273 ft | 248 kts | 297° |
| 2026-05-07 12:37 | 52.12501 | 0.01772 | 7142 ft | 243 kts | 266° |
| 2026-05-07 12:38 | 52.12046 | -0.00819 | 7009 ft | 238 kts | 235° |
| 2026-05-07 12:38 | 52.10879 | -0.02665 | 6880 ft | 234 kts | 207° |
| 2026-05-07 12:38 | 52.09345 | -0.03497 | 6758 ft | 232 kts | 189° |
| 2026-05-07 12:38 | 52.07752 | -0.03880 | 6615 ft | 232 kts | 186° |
| 2026-05-07 12:39 | 52.06140 | -0.04218 | 6468 ft | 233 kts | 187° |
| 2026-05-07 12:39 | 52.04521 | -0.04569 | 6265 ft | 235 kts | 187° |
| 2026-05-07 12:39 | 52.02913 | -0.04929 | 6106 ft | 231 kts | 187° |
| 2026-05-07 12:39 | 52.01335 | -0.05283 | 5956 ft | 228 kts | 186° |
| 2026-05-07 12:40 | 51.99756 | -0.05276 | 5787 ft | 227 kts | 174° |
| 2026-05-07 12:40 | 51.98189 | -0.04989 | 5618 ft | 227 kts | 172° |
| 2026-05-07 12:40 | 51.96624 | -0.04672 | 5461 ft | 227 kts | 173° |
| 2026-05-07 12:40 | 51.95055 | -0.04361 | 5283 ft | 227 kts | 173° |
| 2026-05-07 12:41 | 51.93489 | -0.04062 | 5116 ft | 226 kts | 173° |
| 2026-05-07 12:41 | 51.91930 | -0.03773 | 4946 ft | 225 kts | 173° |
| 2026-05-07 12:41 | 51.90372 | -0.03490 | 4788 ft | 225 kts | 173° |
| 2026-05-07 12:41 | 51.88814 | -0.03211 | 4617 ft | 225 kts | 173° |
| 2026-05-07 12:42 | 51.87259 | -0.02936 | 4439 ft | 225 kts | 173° |
| 2026-05-07 12:42 | 51.85706 | -0.02664 | 4288 ft | 225 kts | 173° |
| 2026-05-07 12:42 | 51.84141 | -0.02392 | 4111 ft | 225 kts | 173° |
| 2026-05-07 12:42 | 51.82582 | -0.02121 | 3932 ft | 225 kts | 173° |
| 2026-05-07 12:43 | 51.81024 | -0.01851 | 3785 ft | 224 kts | 174° |
| 2026-05-07 12:43 | 51.79481 | -0.01585 | 3592 ft | 221 kts | 174° |
| 2026-05-07 12:43 | 51.77993 | -0.01111 | 3409 ft | 218 kts | 154° |
| 2026-05-07 12:43 | 51.76867 | 0.00437 | 3288 ft | 212 kts | 122° |
| 2026-05-07 12:44 | 51.76583 | 0.02685 | 3125 ft | 206 kts | 79° |
| 2026-05-07 12:44 | 51.77108 | 0.04777 | 3038 ft | 196 kts | 63° |
| 2026-05-07 12:44 | 51.77772 | 0.06666 | 2987 ft | 195 kts | 57° |
| 2026-05-07 12:44 | 51.78618 | 0.08381 | 2855 ft | 197 kts | 51° |
| 2026-05-07 12:45 | 51.79555 | 0.09992 | 2608 ft | 195 kts | 46° |
| 2026-05-07 12:45 | 51.80530 | 0.11485 | 2339 ft | 192 kts | 45° |
| 2026-05-07 12:45 | 51.81489 | 0.12922 | 2075 ft | 184 kts | 45° |
| 2026-05-07 12:45 | 51.82397 | 0.14293 | 1830 ft | 173 kts | 45° |
| 2026-05-07 12:46 | 51.83244 | 0.15567 | 1626 ft | 157 kts | 45° |
| 2026-05-07 12:46 | 51.84006 | 0.16715 | 1418 ft | 148 kts | 45° |
| 2026-05-07 12:46 | 51.84763 | 0.17855 | 1202 ft | 148 kts | 46° |
| 2026-05-07 12:46 | 51.85506 | 0.18974 | 974 ft | 143 kts | 46° |
| 2026-05-07 12:47 | 51.86232 | 0.20069 | 769 ft | 142 kts | 46° |
| 2026-05-07 12:47 | 51.86952 | 0.21155 | 600 ft | 139 kts | 46° |
| 2026-05-07 12:47 | 51.87665 | 0.22215 | 391 ft | 139 kts | 47° |
| 2026-05-07 12:47 | 51.88320 | 0.23214 | 339 ft | 112 kts | 44° |
| 2026-05-07 12:48 | 51.88769 | 0.23883 | 335 ft | 69 kts | 42° |
| 2026-05-07 12:48 | 51.89032 | 0.24308 | 344 ft | 36 kts | 57° |
| 2026-05-07 12:48 | 51.89132 | 0.24665 | 351 ft | 33 kts | 68° |
| 2026-05-07 12:48 | 51.89169 | 0.24816 | 349 ft | 4 kts | 74° |
| 2026-05-07 12:49 | 51.89172 | 0.24864 | 347 ft | 4 kts | 90° |
| 2026-05-07 12:49 | 51.89156 | 0.24903 | 353 ft | 4 kts | 121° |
| 2026-05-07 12:49 | 51.89156 | 0.24939 | 354 ft | 7 kts | 68° |
| 2026-05-07 12:49 | 51.89213 | 0.25041 | 348 ft | 14 kts | 48° |
| 2026-05-07 12:50 | 51.89237 | 0.25170 | 350 ft | 11 kts | 109° |
| 2026-05-07 12:50 | 51.89211 | 0.25225 | 353 ft | 5 kts | 134° |
| 2026-05-07 12:50 | 51.89199 | 0.25280 | 350 ft | 5 kts | 87° |
| 2026-05-07 12:50 | 51.89216 | 0.25334 | 355 ft | 5 kts | 47° |
| 2026-05-07 12:51 | 51.89231 | 0.25369 | 352 ft | 2 kts | 75° |
| 2026-05-07 12:51 | 51.89231 | 0.25394 | 349 ft | 2 kts | 97° |
| 2026-05-07 12:51 | 51.89228 | 0.25417 | 352 ft | 2 kts | 102° |
| 2026-05-07 12:51 | 51.89225 | 0.25440 | 348 ft | 2 kts | 102° |
| 2026-05-07 12:52 | 51.89223 | 0.25461 | 349 ft | 2 kts | 101° |
| 2026-05-07 12:52 | 51.89220 | 0.25478 | 348 ft | 0 kts | 102° |
| 2026-05-07 12:52 | 51.89220 | 0.25483 | 348 ft | 0 kts | 102° |